Austin, UT

7:58 PM MDT on October 01, 2014 (GMT -0600)
Putter Butt Farms | Change Station
CLOSE
Current Station
Personal Weather Station
Location: Monroe, UT
Elevation: 5322 ft
Nearby Weather Stations
Active Advisory: Freeze Warning

Elev 5322 ft 38.65 °N, 112.14 °W | Updated 5 seconds ago

Clear
Clear
43.2 °F
Feels Like 43 °F
N
0.0
Wind Variable Wind from NW
Gusts 0.0 mph

Today
High -- | Low -- °F
--% Chance of Precip.
Yesterday
High -- | Low -- °F
Precip. -- in
7:24 AM 7:11 PM
First Quarter, 53% visible
Pressure 30.11 in
Visibility 10.0 miles
Clouds Clear
Windchill 43 °F
Dew Point 32 °F
Humidity 65%
Rainfall 0.31 in
Snow Depth 1 in , 3 in , 0 in
UV 0.0 out of 12
Pollen 4.00 out of 12
Air Quality Not available.
Flu Activity Not available.
METAR KMLF 020152Z AUTO 03007KT 10SM CLR 09/M01 A3016 RMK AO2 SLP194 T00941011

More Conditions Fewer Conditions

Pressure 30.11 in
Visibility 10.0 miles
Clouds Clear
Windchill 43 °F
Dew Point 32 °F
Humidity 65%
Rainfall 0.31 in
Snow Depth 1 in , 3 in , 0 in
UV 0.0 out of 12
Pollen 4.00 out of 12
Air Quality Not available.
Flu Activity Not available.
METAR KMLF 020152Z AUTO 03007KT 10SM CLR 09/M01 A3016 RMK AO2 SLP194 T00941011

More Conditions Fewer Conditions

10-Day Weather Forecast

Almanac

Astronomy

Oct. 01, 2014 Rise Set
Actual Time 7:24 AM MDT 7:11 PM MDT
Civil Twilight 6:57 AM MDT 7:37 PM MDT
Nautical Twilight 6:27 AM MDT 8:08 PM MDT
Astronomical Twilight 5:56 AM MDT 8:39 PM MDT
Moon 2:25 PM MDT (10/1) No Moon Set
Length of Visible Light 12h 39m
Length of Day
11h 46m
Tomorrow will be 2m 29s shorter.
First Quarter, 53% of the Moon is Illuminated
Today
First Quarter
Oct 8
Full
Oct 15
Last Quarter
Oct 23
New
Oct 30
First Quarter

Today's Extremes

State Highs State Lows

Community

WunderPhotos

Upload Photos

1,758,118 photos uploaded!

WunderBlogs® & News

Nearby

Snow Depth

Station Depth Elevation
Ben Lomond Peak 1 in 8000 ft
Lakefork Basin 3 in 10900 ft
Dry Fork 0 in 7160 ft
Kimberly Mine 0 in 9300 ft
Horse Ridge 1 in 8160 ft

Earthquake Activity

City Distance Mag. Time & Date
No recent earthquake activity has been reported nearby.
Minimum magnitude displayed is 2.5.

Coastal Water Temperatures

Place Temperature
No Stations Reporting

Nearby Weather Stations